createdAt,value
2022-09-30T00:01:16.299Z,4.90
2022-09-30T00:03:43.515Z,4.47
2022-09-30T00:06:11.119Z,5.22
2022-09-30T00:08:38.495Z,4.88
2022-09-30T00:11:13.453Z,4.63
2022-09-30T00:13:41.017Z,4.35
2022-09-30T00:16:09.946Z,4.32
2022-09-30T00:18:37.685Z,4.50
2022-09-30T00:21:06.122Z,4.70
2022-09-30T00:23:33.095Z,4.82
2022-09-30T00:26:02.761Z,4.03
2022-09-30T00:28:30.252Z,4.05
2022-09-30T00:31:02.085Z,3.88
2022-09-30T00:33:29.406Z,5.50
2022-09-30T00:35:56.556Z,4.50
2022-09-30T00:38:23.587Z,4.20
2022-09-30T00:40:51.533Z,5.03
2022-09-30T00:43:38.039Z,3.97
2022-09-30T00:46:06.233Z,4.13
2022-09-30T00:48:38.889Z,4.20
2022-09-30T00:51:07.422Z,3.83
2022-09-30T00:53:44.826Z,3.63
2022-09-30T00:56:19.954Z,4.38
2022-09-30T00:59:22.160Z,4.43
2022-09-30T01:01:49.263Z,4.05
2022-09-30T01:04:20.706Z,4.55
2022-09-30T01:06:47.808Z,3.97
2022-09-30T01:09:15.089Z,4.53
2022-09-30T01:11:42.054Z,4.35
2022-09-30T01:14:17.657Z,4.38
2022-09-30T01:16:47.337Z,4.35
2022-09-30T01:19:14.133Z,4.78
2022-09-30T01:21:52.493Z,4.95
2022-09-30T01:24:31.914Z,5.20
2022-09-30T01:27:22.663Z,4.78
2022-09-30T01:30:14.389Z,4.88
2022-09-30T01:33:15.082Z,4.00
2022-09-30T01:35:51.461Z,4.15
2022-09-30T01:38:26.649Z,4.75
2022-09-30T01:41:26.021Z,4.47
2022-09-30T01:43:59.669Z,4.57
2022-09-30T01:46:54.115Z,3.88
2022-09-30T01:49:30.177Z,4.32
2022-09-30T01:51:59.993Z,4.47
2022-09-30T01:54:54.989Z,4.60
2022-09-30T01:57:33.762Z,3.85
2022-09-30T02:00:11.544Z,4.07
2022-09-30T02:03:02.099Z,3.67
2022-09-30T02:05:36.644Z,5.25
2022-09-30T02:08:16.754Z,3.92
2022-09-30T02:10:56.262Z,4.28
2022-09-30T02:13:32.700Z,4.20
2022-09-30T02:16:12.654Z,4.13
2022-09-30T02:18:44.640Z,4.78
2022-09-30T02:21:14.937Z,4.72
2022-09-30T02:23:44.511Z,4.63
2022-09-30T02:26:28.273Z,5.28
2022-09-30T02:29:04.611Z,4.70
2022-09-30T02:31:39.590Z,4.72
2022-09-30T02:34:11.484Z,5.13
2022-09-30T02:36:44.174Z,4.32
2022-09-30T02:39:16.246Z,5.30
2022-09-30T02:41:58.837Z,5.28
2022-09-30T02:44:26.222Z,5.68
2022-09-30T02:47:14.184Z,4.97
2022-09-30T02:49:56.224Z,4.97
2022-09-30T02:52:26.082Z,4.60
2022-09-30T02:55:12.841Z,5.88
2022-09-30T02:57:48.574Z,5.05
2022-09-30T03:00:16.124Z,5.20
2022-09-30T03:02:42.890Z,6.05
2022-09-30T03:05:11.250Z,6.25
2022-09-30T03:07:40.018Z,4.93
2022-09-30T03:10:17.671Z,4.55
2022-09-30T03:13:15.576Z,5.07
2022-09-30T03:15:49.893Z,5.85
2022-09-30T03:18:36.607Z,5.68
2022-09-30T03:21:15.865Z,5.63
2022-09-30T03:23:46.177Z,6.00
2022-09-30T03:26:24.399Z,5.72
2022-09-30T03:29:12.387Z,5.22
2022-09-30T03:31:44.641Z,5.45
2022-09-30T03:34:34.513Z,5.93
2022-09-30T03:37:20.847Z,5.43
2022-09-30T03:40:02.507Z,5.32
2022-09-30T03:42:41.646Z,4.88
2022-09-30T03:45:52.787Z,4.75
2022-09-30T03:48:21.964Z,5.57
2022-09-30T03:50:49.420Z,5.38
2022-09-30T03:53:16.492Z,5.90
2022-09-30T03:55:48.403Z,5.30
2022-09-30T03:58:17.765Z,4.95
2022-09-30T04:00:50.638Z,4.93
2022-09-30T04:03:19.571Z,5.25
2022-09-30T04:05:47.255Z,5.60
2022-09-30T04:08:14.518Z,5.95
2022-09-30T04:10:42.458Z,5.97
2022-09-30T04:13:09.378Z,5.43
2022-09-30T04:15:36.718Z,6.22
2022-09-30T04:18:04.835Z,5.70
2022-09-30T04:20:32.574Z,5.68
2022-09-30T04:23:01.047Z,6.28
2022-09-30T04:25:28.588Z,6.65
2022-09-30T04:27:56.077Z,6.18
2022-09-30T04:30:26.341Z,6.35
2022-09-30T04:32:55.131Z,6.32
2022-09-30T04:35:23.566Z,6.40
2022-09-30T04:37:50.401Z,5.68
2022-09-30T04:40:17.571Z,6.20
2022-09-30T04:42:44.548Z,6.47
2022-09-30T04:45:12.859Z,5.90
2022-09-30T04:47:44.285Z,6.55
2022-09-30T04:50:11.157Z,5.75
2022-09-30T04:52:38.345Z,5.78
2022-09-30T04:55:05.774Z,5.78
2022-09-30T04:57:32.810Z,6.20
2022-09-30T04:59:59.806Z,6.78
2022-09-30T05:02:26.856Z,6.90
2022-09-30T05:04:55.134Z,5.53
2022-09-30T05:07:22.242Z,5.78
2022-09-30T05:09:49.080Z,6.07
2022-09-30T05:12:16.929Z,6.47
2022-09-30T05:14:43.892Z,7.03
2022-09-30T05:17:10.752Z,6.13
2022-09-30T05:19:37.538Z,5.90
2022-09-30T05:22:04.375Z,7.30
2022-09-30T05:24:31.150Z,6.95
2022-09-30T05:26:58.828Z,7.72
2022-09-30T05:29:25.710Z,6.63
2022-09-30T05:31:52.544Z,7.15
2022-09-30T05:34:21.276Z,6.35
2022-09-30T05:36:48.046Z,5.82
2022-09-30T05:39:15.241Z,6.90
2022-09-30T05:41:41.957Z,6.65
2022-09-30T05:44:10.240Z,6.97
2022-09-30T05:46:37.299Z,7.13
2022-09-30T05:49:04.113Z,6.63
2022-09-30T05:51:31.361Z,6.90
2022-09-30T05:53:58.221Z,6.10
2022-09-30T05:56:25.095Z,7.07
2022-09-30T05:58:51.855Z,7.00
2022-09-30T06:01:18.591Z,6.50
2022-09-30T06:03:46.589Z,6.57
2022-09-30T06:06:14.076Z,7.07
2022-09-30T06:08:41.811Z,7.32
2022-09-30T06:11:11.815Z,7.20
2022-09-30T06:13:40.629Z,6.20
2022-09-30T06:16:08.248Z,6.38
2022-09-30T06:18:36.248Z,6.97
2022-09-30T06:21:05.020Z,6.57
2022-09-30T06:23:35.021Z,6.70
2022-09-30T06:26:05.094Z,6.82
2022-09-30T06:28:35.321Z,6.78
2022-09-30T06:31:04.109Z,7.32
2022-09-30T06:33:31.989Z,7.93
2022-09-30T06:35:58.964Z,7.50
2022-09-30T06:38:27.327Z,6.50
2022-09-30T06:40:54.190Z,6.68
2022-09-30T06:43:21.026Z,6.47
2022-09-30T06:45:51.397Z,6.70
2022-09-30T06:48:28.917Z,7.25
2022-09-30T06:51:02.315Z,6.45
2022-09-30T06:53:29.622Z,7.20
2022-09-30T06:55:57.616Z,6.82
2022-09-30T06:58:24.986Z,6.72
2022-09-30T07:01:04.236Z,7.15
2022-09-30T07:03:33.737Z,6.35
2022-09-30T07:06:03.541Z,6.45
2022-09-30T07:08:32.079Z,7.47
2022-09-30T07:10:59.979Z,6.47
2022-09-30T07:13:26.785Z,6.22
2022-09-30T07:15:54.171Z,6.57
2022-09-30T07:18:21.674Z,7.13
2022-09-30T07:20:52.944Z,6.38
2022-09-30T07:23:23.278Z,5.80
2022-09-30T07:25:58.821Z,6.65
2022-09-30T07:28:31.971Z,6.97
2022-09-30T07:31:30.654Z,7.13
2022-09-30T07:33:53.473Z,7.00
2022-09-30T07:36:31.854Z,6.13
2022-09-30T07:39:00.230Z,6.45
2022-09-30T07:41:29.055Z,6.18
2022-09-30T07:43:58.676Z,6.28
2022-09-30T07:46:30.664Z,6.60
2022-09-30T07:49:05.457Z,6.47
2022-09-30T07:51:35.434Z,6.43
2022-09-30T07:54:05.891Z,6.07
2022-09-30T07:56:51.233Z,6.93
2022-09-30T07:59:20.860Z,6.70
2022-09-30T08:01:48.263Z,6.28
2022-09-30T08:04:16.198Z,6.35
2022-09-30T08:06:46.077Z,5.57
2022-09-30T08:09:15.517Z,5.70
2022-09-30T08:11:42.946Z,5.25
2022-09-30T08:14:18.790Z,5.20
2022-09-30T08:16:45.606Z,5.55
2022-09-30T08:19:17.863Z,5.25
2022-09-30T08:21:45.906Z,5.50
2022-09-30T08:24:12.980Z,5.25
2022-09-30T08:26:40.440Z,5.45
2022-09-30T08:29:07.491Z,5.32
2022-09-30T08:31:35.308Z,5.18
2022-09-30T08:34:03.114Z,5.18
2022-09-30T08:36:30.303Z,5.07
2022-09-30T08:38:58.007Z,5.68
2022-09-30T08:41:55.414Z,5.43
2022-09-30T08:44:44.967Z,5.68
2022-09-30T08:47:31.622Z,5.57
2022-09-30T08:50:16.729Z,5.10
2022-09-30T08:52:49.589Z,4.93
2022-09-30T08:55:22.950Z,3.90
2022-09-30T08:57:51.583Z,4.18
2022-09-30T09:00:21.096Z,3.55
2022-09-30T09:02:57.186Z,4.18
2022-09-30T09:05:37.328Z,4.13
2022-09-30T09:08:31.233Z,4.07
2022-09-30T09:11:13.697Z,4.13
2022-09-30T09:14:04.568Z,4.55
2022-09-30T09:16:47.652Z,4.55
2022-09-30T09:19:23.397Z,4.20
2022-09-30T09:21:52.234Z,3.75
2022-09-30T09:24:25.638Z,3.78
2022-09-30T09:26:58.743Z,3.70
2022-09-30T09:30:08.402Z,3.25
2022-09-30T09:32:36.186Z,3.03
2022-09-30T09:35:17.806Z,3.00
2022-09-30T09:38:15.396Z,2.65
2022-09-30T09:41:19.702Z,3.08
2022-09-30T09:43:58.488Z,2.92
2022-09-30T09:46:41.578Z,4.03
2022-09-30T09:49:20.691Z,2.77
2022-09-30T09:51:59.705Z,2.90
2022-09-30T09:54:31.094Z,2.58
2022-09-30T09:57:09.842Z,2.70
2022-09-30T09:59:55.153Z,2.22
2022-09-30T10:02:24.279Z,2.10
2022-09-30T10:05:00.346Z,2.00
2022-09-30T10:07:33.382Z,1.70
2022-09-30T10:10:22.356Z,1.75
2022-09-30T10:12:54.817Z,1.67
2022-09-30T10:15:24.223Z,2.25
2022-09-30T10:17:58.818Z,1.73
2022-09-30T10:20:34.337Z,1.70
2022-09-30T10:23:10.452Z,1.77
2022-09-30T10:25:37.706Z,1.80
2022-09-30T10:28:22.566Z,1.77
2022-09-30T10:30:59.654Z,1.75
2022-09-30T10:33:28.941Z,2.40
2022-09-30T10:36:16.915Z,2.45
2022-09-30T10:39:07.287Z,1.95
2022-09-30T10:41:38.204Z,2.65
2022-09-30T10:44:13.173Z,2.47
2022-09-30T10:46:41.697Z,2.80
2022-09-30T10:49:30.358Z,2.30
2022-09-30T10:51:59.783Z,2.63
2022-09-30T10:54:50.661Z,2.20
2022-09-30T10:57:41.963Z,2.20
2022-09-30T11:00:19.581Z,1.95
2022-09-30T11:03:05.715Z,2.47
2022-09-30T11:05:38.419Z,2.28
2022-09-30T11:08:29.582Z,2.92
2022-09-30T11:11:18.279Z,2.38
2022-09-30T11:13:57.020Z,2.63
2022-09-30T11:16:36.001Z,2.35
2022-09-30T11:19:17.109Z,2.30
2022-09-30T11:21:57.673Z,2.10
2022-09-30T11:24:43.580Z,2.08
2022-09-30T11:27:22.295Z,2.67
2022-09-30T11:30:18.094Z,2.38
2022-09-30T11:33:03.644Z,1.98
2022-09-30T11:35:53.703Z,2.58
2022-09-30T11:38:42.052Z,2.33
2022-09-30T11:41:41.142Z,2.20
2022-09-30T11:44:25.432Z,2.30
2022-09-30T11:47:17.117Z,3.03
2022-09-30T11:50:02.077Z,1.98
2022-09-30T11:52:47.080Z,2.13
2022-09-30T11:55:33.184Z,2.38
2022-09-30T11:58:36.223Z,1.95
2022-09-30T12:01:07.709Z,1.67
2022-09-30T12:03:43.775Z,1.77
2022-09-30T12:06:31.397Z,1.60
2022-09-30T12:09:11.995Z,1.92
2022-09-30T12:11:49.559Z,2.00
2022-09-30T12:14:31.409Z,2.10
2022-09-30T12:17:01.826Z,2.40
2022-09-30T12:19:36.399Z,2.60
2022-09-30T12:22:17.926Z,2.67
2022-09-30T12:24:47.614Z,2.03
2022-09-30T12:27:27.670Z,2.63
2022-09-30T12:30:18.262Z,3.22
2022-09-30T12:33:10.819Z,3.35
2022-09-30T12:36:09.577Z,3.15
2022-09-30T12:38:46.051Z,2.33
2022-09-30T12:41:12.715Z,2.00
2022-09-30T12:43:51.590Z,1.85
2022-09-30T12:46:46.072Z,2.22
2022-09-30T12:49:19.934Z,1.85
2022-09-30T12:51:52.818Z,2.00
2022-09-30T12:54:35.866Z,1.95
2022-09-30T12:57:06.258Z,2.05
2022-09-30T12:59:36.372Z,2.55
2022-09-30T13:02:06.188Z,1.98
2022-09-30T13:04:34.967Z,2.67
2022-09-30T13:07:01.613Z,2.00
2022-09-30T13:09:35.213Z,2.15
2022-09-30T13:12:02.159Z,1.88
2022-09-30T13:14:33.287Z,2.03
2022-09-30T13:17:03.472Z,1.88
2022-09-30T13:19:40.965Z,1.65
2022-09-30T13:22:20.179Z,2.13
2022-09-30T13:25:04.885Z,2.30
2022-09-30T13:27:43.386Z,2.25
2022-09-30T13:30:16.204Z,2.50
2022-09-30T13:32:53.672Z,2.13
2022-09-30T13:35:39.746Z,1.95
2022-09-30T13:38:14.015Z,2.05
2022-09-30T13:41:03.787Z,1.80
2022-09-30T13:43:56.443Z,2.10
2022-09-30T13:46:28.208Z,1.67
2022-09-30T13:49:21.590Z,2.13
2022-09-30T13:51:48.943Z,2.47
2022-09-30T13:54:32.659Z,2.17
2022-09-30T13:57:00.439Z,2.28
2022-09-30T14:00:00.160Z,2.00
2022-09-30T14:02:54.388Z,2.10
2022-09-30T14:08:19.614Z,1.98
2022-09-30T14:11:23.970Z,2.03
2022-09-30T14:14:17.792Z,2.03
2022-09-30T14:17:06.090Z,1.98
2022-09-30T14:19:47.604Z,2.42
2022-09-30T14:22:15.289Z,2.08
2022-09-30T14:24:42.231Z,2.13
2022-09-30T14:27:25.566Z,2.13
2022-09-30T14:30:04.267Z,2.10
2022-09-30T14:32:38.050Z,2.95
2022-09-30T14:35:08.152Z,1.92
2022-09-30T14:37:45.057Z,1.80
2022-09-30T14:40:17.939Z,1.98
2022-09-30T14:42:47.256Z,1.43
2022-09-30T14:45:35.450Z,1.60
2022-09-30T14:48:08.700Z,2.38
2022-09-30T14:50:46.241Z,1.60
2022-09-30T14:53:32.559Z,1.83
2022-09-30T14:56:00.804Z,1.50
2022-09-30T14:58:40.648Z,1.48
2022-09-30T15:01:15.024Z,1.27
2022-09-30T15:03:45.257Z,1.48
2022-09-30T15:06:33.662Z,1.45
2022-09-30T15:09:06.670Z,1.40
2022-09-30T15:11:38.759Z,1.60
2022-09-30T15:14:12.367Z,1.33
2022-09-30T15:16:54.381Z,1.38
2022-09-30T15:19:34.282Z,1.40
2022-09-30T15:22:07.037Z,1.63
2022-09-30T15:24:38.312Z,1.50
2022-09-30T15:27:07.362Z,1.20
2022-09-30T15:29:34.201Z,1.20
2022-09-30T15:32:23.750Z,1.15
2022-09-30T15:34:50.902Z,1.33
2022-09-30T15:37:23.800Z,1.35
2022-09-30T15:40:09.770Z,1.87
2022-09-30T15:43:01.217Z,1.30
2022-09-30T15:45:35.350Z,1.30
2022-09-30T15:48:25.553Z,1.13
2022-09-30T15:50:55.815Z,1.20
2022-09-30T15:53:25.747Z,1.52
2022-09-30T15:56:15.647Z,1.60
2022-09-30T15:58:58.157Z,1.40
2022-09-30T16:01:52.332Z,1.90
2022-09-30T16:04:19.080Z,2.22
2022-09-30T16:06:49.647Z,1.30
2022-09-30T16:09:35.677Z,1.52
2022-09-30T16:12:08.618Z,1.23
2022-09-30T16:14:45.010Z,1.30
2022-09-30T16:17:32.590Z,1.83
2022-09-30T16:20:07.771Z,1.55
2022-09-30T16:22:42.650Z,1.33
2022-09-30T16:25:18.741Z,1.77
2022-09-30T16:27:45.922Z,1.65
2022-09-30T16:30:18.481Z,1.58
2022-09-30T16:32:53.235Z,2.70
2022-09-30T16:35:23.134Z,2.25
2022-09-30T16:37:51.718Z,1.50
2022-09-30T16:40:21.846Z,1.00
2022-09-30T16:42:49.903Z,1.50
2022-09-30T16:45:17.881Z,1.92
2022-09-30T16:47:44.816Z,1.83
2022-09-30T16:50:23.906Z,1.90
2022-09-30T16:52:50.726Z,1.25
2022-09-30T16:55:17.449Z,1.55
2022-09-30T16:57:44.297Z,1.60
2022-09-30T17:00:19.854Z,1.65
2022-09-30T17:02:48.427Z,1.45
2022-09-30T17:05:20.862Z,1.52
2022-09-30T17:07:52.886Z,0.98
2022-09-30T17:10:28.826Z,1.63
2022-09-30T17:13:01.128Z,1.50
2022-09-30T17:15:30.485Z,1.38
2022-09-30T17:17:58.134Z,1.60
2022-09-30T17:20:26.037Z,1.35
2022-09-30T17:22:52.957Z,1.90
2022-09-30T17:25:19.837Z,1.30
2022-09-30T17:27:50.222Z,1.70
2022-09-30T17:30:21.278Z,1.60
2022-09-30T17:32:48.253Z,1.75
2022-09-30T17:35:15.121Z,1.70
2022-09-30T17:37:45.322Z,1.75
2022-09-30T17:40:32.130Z,1.88
2022-09-30T17:43:07.784Z,1.58
2022-09-30T17:45:35.755Z,2.17
2022-09-30T17:48:03.098Z,1.35
2022-09-30T17:50:29.855Z,1.73
2022-09-30T17:52:56.682Z,1.63
2022-09-30T17:55:23.592Z,1.95
2022-09-30T17:57:51.359Z,1.95
2022-09-30T18:00:19.211Z,1.88
2022-09-30T18:02:45.960Z,2.33
2022-09-30T18:05:15.575Z,2.25
2022-09-30T18:07:42.362Z,1.95
2022-09-30T18:10:09.360Z,2.00
2022-09-30T18:12:36.199Z,1.85
2022-09-30T18:15:03.254Z,1.67
2022-09-30T18:17:30.085Z,1.85
2022-09-30T18:19:57.758Z,2.17
2022-09-30T18:22:24.605Z,1.88
2022-09-30T18:25:10.914Z,2.10
2022-09-30T18:27:37.819Z,2.45
2022-09-30T18:30:06.250Z,2.00
2022-09-30T18:32:34.338Z,2.60
2022-09-30T18:35:01.354Z,2.85
2022-09-30T18:37:29.382Z,2.00
2022-09-30T18:39:57.226Z,2.22
2022-09-30T18:42:25.020Z,2.03
2022-09-30T18:44:52.143Z,2.17
2022-09-30T18:47:20.269Z,2.38
2022-09-30T18:49:48.292Z,1.98
2022-09-30T18:52:16.904Z,1.77
2022-09-30T18:54:43.785Z,2.10
2022-09-30T18:57:10.632Z,2.10
2022-09-30T18:59:38.456Z,1.95
2022-09-30T19:02:05.449Z,1.75
2022-09-30T19:04:32.294Z,1.77
2022-09-30T19:06:59.065Z,1.85
2022-09-30T19:09:26.598Z,1.75
2022-09-30T19:11:53.457Z,1.80
2022-09-30T19:14:20.236Z,1.65
2022-09-30T19:16:47.347Z,2.33
2022-09-30T19:19:15.198Z,1.77
2022-09-30T19:21:42.041Z,2.28
2022-09-30T19:24:09.239Z,2.55
2022-09-30T19:26:38.323Z,2.72
2022-09-30T19:29:07.588Z,1.85
2022-09-30T19:31:36.723Z,1.88
2022-09-30T19:34:06.522Z,1.73
2022-09-30T19:36:45.185Z,2.45
2022-09-30T19:39:16.103Z,1.95
2022-09-30T19:41:46.416Z,1.85
2022-09-30T19:44:19.123Z,2.22
2022-09-30T19:46:49.574Z,1.80
2022-09-30T19:49:17.379Z,2.00
2022-09-30T19:51:44.463Z,2.13
2022-09-30T19:54:11.281Z,1.45
2022-09-30T19:56:38.167Z,1.58
2022-09-30T19:59:05.119Z,1.52
2022-09-30T20:01:34.445Z,1.65
2022-09-30T20:04:04.815Z,1.70
2022-09-30T20:06:33.356Z,1.98
2022-09-30T20:09:02.149Z,1.95
2022-09-30T20:11:33.413Z,1.73
2022-09-30T20:14:19.926Z,1.70
2022-09-30T20:16:49.773Z,2.20
2022-09-30T20:19:20.742Z,1.98
2022-09-30T20:21:47.939Z,1.98
2022-09-30T20:24:16.363Z,1.88
2022-09-30T20:26:45.615Z,2.05
2022-09-30T20:29:12.729Z,2.10
2022-09-30T20:31:41.441Z,2.40
2022-09-30T20:34:11.800Z,2.00
2022-09-30T20:36:40.248Z,1.83
2022-09-30T20:39:07.813Z,1.42
2022-09-30T20:41:36.839Z,2.00
2022-09-30T20:44:08.923Z,2.42
2022-09-30T20:46:35.794Z,2.28
2022-09-30T20:49:03.100Z,2.03
2022-09-30T20:51:31.417Z,1.95
2022-09-30T20:54:00.298Z,2.50
2022-09-30T20:56:44.147Z,1.73
2022-09-30T20:59:17.045Z,1.90
2022-09-30T21:01:43.939Z,2.05
2022-09-30T21:04:11.804Z,1.70
2022-09-30T21:06:38.479Z,1.98
2022-09-30T21:09:05.568Z,2.00
2022-09-30T21:11:32.989Z,1.83
2022-09-30T21:14:00.591Z,1.92
2022-09-30T21:16:27.604Z,1.92
2022-09-30T21:18:55.258Z,2.38
2022-09-30T21:21:24.609Z,2.10
2022-09-30T21:23:55.404Z,1.85
2022-09-30T21:26:22.093Z,2.22
2022-09-30T21:28:50.636Z,1.98
2022-09-30T21:31:19.859Z,2.58
2022-09-30T21:33:55.186Z,2.03
2022-09-30T21:36:22.839Z,2.10
2022-09-30T21:38:50.931Z,2.63
2022-09-30T21:41:19.554Z,2.22
2022-09-30T21:43:47.002Z,2.38
2022-09-30T21:46:15.544Z,2.10
2022-09-30T21:48:42.887Z,2.88
2022-09-30T21:51:11.139Z,2.30
2022-09-30T21:53:38.766Z,2.35
2022-09-30T21:56:11.497Z,2.45
2022-09-30T21:58:38.559Z,2.17
2022-09-30T22:01:06.828Z,2.20
2022-09-30T22:03:38.639Z,2.53
2022-09-30T22:06:08.350Z,2.00
2022-09-30T22:08:40.673Z,2.60
2022-09-30T22:11:14.432Z,2.53
2022-09-30T22:13:46.240Z,2.88
2022-09-30T22:16:15.279Z,2.85
2022-09-30T22:18:43.409Z,2.08
2022-09-30T22:21:13.252Z,2.25
2022-09-30T22:23:41.008Z,2.10
2022-09-30T22:26:17.630Z,2.55
2022-09-30T22:28:46.892Z,2.40
2022-09-30T22:31:22.007Z,2.17
2022-09-30T22:34:09.645Z,1.83
2022-09-30T22:36:55.470Z,2.40
2022-09-30T22:39:23.452Z,2.30
2022-09-30T22:41:55.490Z,2.40
2022-09-30T22:44:25.429Z,2.30
2022-09-30T22:46:53.531Z,2.50
2022-09-30T22:49:20.919Z,2.45
2022-09-30T22:51:57.594Z,2.15
2022-09-30T22:54:26.167Z,2.05
2022-09-30T22:56:54.772Z,2.33
2022-09-30T22:59:23.329Z,2.10
2022-09-30T23:01:50.798Z,2.03
2022-09-30T23:04:18.447Z,2.10
2022-09-30T23:06:48.463Z,1.98
2022-09-30T23:09:16.232Z,1.60
2022-09-30T23:11:43.932Z,1.35
2022-09-30T23:14:10.832Z,1.45
2022-09-30T23:16:37.853Z,1.65
2022-09-30T23:19:04.983Z,1.73
2022-09-30T23:21:33.445Z,1.40
2022-09-30T23:24:00.709Z,1.67
2022-09-30T23:26:29.166Z,2.55
2022-09-30T23:28:59.881Z,1.90
2022-09-30T23:31:27.838Z,1.83
2022-09-30T23:33:59.760Z,2.20
2022-09-30T23:36:29.685Z,1.88
2022-09-30T23:39:18.094Z,1.65
2022-09-30T23:41:46.250Z,1.80
2022-09-30T23:44:14.389Z,1.58
2022-09-30T23:47:01.100Z,2.78
2022-09-30T23:49:27.932Z,1.77
2022-09-30T23:51:54.822Z,2.33
2022-09-30T23:54:21.587Z,1.75
2022-09-30T23:56:48.549Z,2.10
2022-09-30T23:59:15.340Z,1.70
